Weather observations for the past three days for
Hilton Head Island, Hilton Head Airport
Metric (Imperial)
Date Time (edt) Wind (kph) Vis. (km) Weather Sky Cond. Temperature (ºC) Relative Humidity Wind Chill (°C) Heat Index (°C) Pressure Precipitation (cm)
Air Dwpt 6 hour altimeter (cm) sea level (mb) 1 hr 3 hr 6 hr
Max. Min.
10 09:50 Calm 16.09 Mostly Cloudy BKN100 22 19 83% 76.28 0.0
10 08:50 Vrbl 6 16.09 Mostly Cloudy BKN100 20 19 94% 76.25 0.0
10 07:50 Calm 16.09 Mostly Cloudy FEW070 BKN110 20 19 94% 76.23 0.0
10 06:55 Vrbl 6 16.09 Overcast SCT044 OVC070 20 19 94% 76.2 0.0
10 06:35 Vrbl 6 16.09 Overcast FEW045 OVC070 20 19 94% 76.17 0.0
10 06:15 Calm 16.09 Overcast FEW039 SCT047 OVC075 20 19 94% 76.15 0.0
10 05:55 W 6 16.09 Mostly Cloudy FEW047 BKN075 BKN120 20 19 94% 76.15 0.0
10 05:35 W 6 16.09 Mostly Cloudy FEW070 BKN120 20 20 100% 76.12 0.0
10 05:15 Calm 16.09 Mostly Cloudy BKN070 BKN120 20 20 100% 76.12 0.0
10 04:55 W 6 16.09 Mostly Cloudy SCT075 BKN120 20 20 100% 76.12 0.0
10 04:35 Calm 16.09 Mostly Cloudy FEW075 BKN120 20 20 100% 76.07 0.0
10 04:15 Calm 16.09 Mostly Cloudy SCT041 SCT075 BKN120 20 20 100% 76.1 0.0
10 03:55 SW 6 16.09 Light Rain BKN041 BKN048 BKN120 20 20 100% 76.1 0.0
10 03:35 Calm 16.09 Light Rain FEW041 SCT048 SCT060 20 20 100% 76.1 0.0
10 03:15 SW 6 14.48 Light Rain FEW060 SCT120 20 20 100% 76.07 0.0
10 02:55 Calm 12.87 Light Rain FEW038 SCT055 BKN085 20 19 94% 76.07 0.0
10 02:35 SW 7 16.09 Light Rain FEW046 OVC085 20 19 94% 76.1 0.0
10 02:15 SW 6 16.09 Overcast FEW047 OVC090 21 19 88% 76.07 0.0
10 01:55 SW 6 16.09 Light Rain SCT048 SCT055 OVC090 21 19 88% 76.1 0.0
10 01:35 SW 7 16.09 Overcast BKN050 BKN055 OVC095 21 19 88% 76.12 0.0
10 01:15 W 9 16.09 Overcast BKN050 BKN070 OVC095 21 20 94% 76.12 0.0
10 00:55 W 9 16.09 Overcast OVC050 21 19 88% 76.12 0.0
10 00:35 W 9 16.09 Overcast SCT055 OVC100 21 20 94% 76.12 0.0
10 00:15 W 9 16.09 Overcast FEW050 OVC110 21 20 94% 76.1 0.0
09 23:55 W 11 16.09 Overcast BKN050 OVC110 21 20 94% 76.1 0.0
09 23:35 W 6 16.09 Overcast FEW055 OVC110 21 20 94% 76.07 0.0
09 23:15 W 6 16.09 Mostly Cloudy BKN110 21 20 94% 76.07 0.0
09 22:55 SW 11 16.09 Mostly Cloudy FEW060 BKN120 21 20 94% 76.07 0.0
09 22:35 Calm 16.09 Fair CLR 21 20 94% 76.07 0.0
09 22:15 SW 9 16.09 Fair CLR 21 19 88% 76.05 0.0
09 21:55 SW 7 16.09 A Few Clouds FEW090 22 19 83% 76.05 0.0
09 21:35 SW 9 16.09 Partly Cloudy FEW075 SCT090 22 19 83% 76.05 0.0
09 21:15 SW 11 16.09 Overcast BKN075 OVC090 22 19 83% 76.02 0.0
09 20:50 SW 7 16.09 Overcast FEW075 OVC090 21 20 94% 76 0.0
09 19:50 SW 9 16.09 Overcast OVC110 22 19 83% 75.97 0.0
09 18:50 W 7 G 20 16.09 A Few Clouds FEW110 22 19 83% 75.95 0.0
09 17:50 SW 11 16.09 Fair CLR 22 19 83% 75.95 0.0
09 16:50 W 6 G 19 16.09 A Few Clouds FEW022 22 19 83% 75.97 0.0
09 15:50 W 13 16.09 Mostly Cloudy BKN019 23 20 83% 76 0.0
09 14:52 SW 11 16.09 A Few Clouds FEW060 25 19 69% 26 75.97 0.0
09 13:50 W 11 G 22 16.09 A Few Clouds FEW060 26 18 61% 27 76 0.0
09 12:50 Vrbl 9 G 22 16.09 A Few Clouds FEW031 27 19 62% 28 76.02 0.0
09 11:50 Vrbl 11 16.09 A Few Clouds FEW090 25 19 69% 26 76.05 0.0
09 10:50 SW 11 16.09 A Few Clouds FEW090 24 18 69% 25 76.1 0.0
09 09:50 Calm 16.09 A Few Clouds FEW110 23 20 83% 76.05 0.0
09 08:50 Calm 16.09 Mostly Cloudy FEW013 BKN095 22 21 94% 76.07 0.0
09 07:50 Calm 16.09 Fair CLR 20 20 100% 76.05 0.0
09 06:56 Calm 16.09 Fair CLR 18 18 100% 76 0.0
09 06:35 Calm 12.87 Fair CLR 18 18 100% 75.97 0.0
09 06:15 Calm 14.48 Fair CLR 18 18 100% 75.97 0.0
09 05:35 Calm 14.48 Partly Cloudy SCT110 18 18 100% 75.97 0.0
09 05:15 N 6 16.09 Partly Cloudy FEW090 SCT120 19 18 94% 75.97 0.0
09 04:55 Calm 14.48 Partly Cloudy SCT090 18 18 100% 75.97 0.0
09 04:35 Calm 16.09 Fair CLR 18 18 100% 75.97 0.0
09 04:15 Calm 12.87 Fair CLR 18 18 100% 75.95 0.0
09 03:55 N 6 16.09 Fair CLR 18 18 100% 76.02 0.0
09 03:35 Calm 14.48 Fair CLR 18 18 100% 76 0.0
09 03:15 Calm 14.48 Fair CLR 18 18 100% 76 0.0
09 02:55 Calm 14.48 Fair CLR 18 18 100% 76.02 0.0
09 02:35 Calm 14.48 Fair CLR 18 18 100% 76.05 0.0
09 02:15 Calm 16.09 A Few Clouds FEW120 18 18 100% 76.07 0.0
09 01:55 Calm 16.09 A Few Clouds FEW040 FEW060 FEW110 18 18 100% 76.07 0.0
09 01:35 Calm 14.48 Partly Cloudy FEW020 FEW044 SCT060 18 17 94% 76.05 0.0
09 01:15 Calm 16.09 Light Rain FEW048 FEW060 FEW100 18 18 100% 76.15 0.0
09 00:55 N 7 16.09 A Few Clouds FEW041 FEW060 FEW110 18 17 94% 76.12 0.0 0.05
09 00:35 Calm 14.48 Light Rain SCT042 SCT060 BKN095 18 17 94% 76.15 0.0
09 00:15 Calm 14.48 Light Rain FEW038 BKN045 OVC090 19 16 83% 76.15 0.0
08 23:55 S 11 12.87 Light Rain FEW037 SCT046 BKN060 19 18 94% 76.17 0.0 0.1
08 23:35 Calm 14.48 Light Rain FEW036 SCT048 BKN060 19 18 94% 76.23 0.0
08 23:15 S 7 9.66 Light Rain Fog/Mist FEW028 SCT047 BKN065 19 18 94% 76.2 0.0
08 22:55 Calm 16.09 Light Rain FEW023 19 18 94% 76.28 0.0
08 22:35 Calm 16.09 Light Rain SCT024 19 18 94% 76.28 0.0
08 22:15 Calm 16.09 Partly Cloudy FEW024 SCT100 SCT120 20 17 83% 76.28 0.0
08 21:55 Calm 16.09 A Few Clouds FEW110 20 17 83% 76.25 0.0
08 21:35 Calm 16.09 Fair CLR 20 17 83% 76.2 0.0
08 21:15 Calm 16.09 A Few Clouds FEW120 20 17 83% 76.17 0.0
08 20:50 Calm 16.09 A Few Clouds FEW120 20 17 83% 76.17 0.0
08 19:50 Calm 16.09 Fair CLR 20 16 78% 76.15 0.0
08 18:50 Calm 16.09 Fair CLR 20 16 78% 76.12 0.0
08 17:50 Vrbl 7 16.09 Fair CLR 20 16 78% 76.1 0.0
08 16:50 E 9 16.09 Fair CLR 20 15 73% 76.2 0.0
08 15:50 E 13 G 24 16.09 Fair CLR 20 14 69% 76.17 0.0
08 14:50 E 13 G 26 16.09 Fair CLR 21 14 64% 76.25 0.0
08 13:50 E 15 G 24 16.09 Fair CLR 21 14 64% 76.28 0.0
08 12:50 Vrbl 13 G 28 16.09 Fair CLR 21 11 53% 76.3 0.0
08 11:53 Vrbl 15 G 26 16.09 Fair CLR 21 12 57% 76.35 0.0
08 10:50 NE 22 16.09 Fair CLR 21 13 60% 76.35 0.0
08 09:50 NE 17 G 28 16.09 Fair CLR 20 12 60% 76.3 0.0
08 08:50 NE 19 16.09 Partly Cloudy SCT038 19 12 64% 76.28 0.0
08 07:50 NE 19 16.09 Partly Cloudy SCT038 19 13 68% 76.23 0.0
08 06:50 NE 13 16.09 Partly Cloudy SCT038 19 15 78% 76.12 0.0
08 06:35 NE 19 16.09 Mostly Cloudy BKN038 19 15 78% 76.12 0.0
08 06:15 NE 9 16.09 Partly Cloudy FEW017 SCT039 19 16 83% 76.1 0.0
08 05:55 NE 17 16.09 A Few Clouds FEW016 20 16 78% 76.05 0.0
08 05:35 NE 19 16.09 A Few Clouds FEW017 20 16 78% 76.02 0.0
08 05:15 NE 19 16.09 Fair CLR 20 16 78% 76 0.0
08 04:55 N 20 G 30 16.09 Fair CLR 20 15 73% 76.02 0.0 0.03
08 04:35 N 20 G 30 16.09 Fair CLR 21 15 69% 76 0.0
08 04:15 N 20 16.09 A Few Clouds FEW034 21 15 69% 76 0.0
08 03:55 N 13 G 26 16.09 Fair CLR 21 16 73% 76.02 0.0
08 03:35 N 19 G 30 16.09 A Few Clouds FEW039 21 16 73% 76 0.0
08 03:15 N 15 G 30 16.09 Mostly Cloudy BKN036 22 16 69% 76.02 0.0
08 02:55 N 19 G 28 16.09 Partly Cloudy SCT032 22 16 69% 76.02 0.0 0.05
08 02:35 N 19 G 31 16.09 Fair CLR 22 16 69% 76.02 0.0
08 02:15 NW 15 G 26 16.09 A Few Clouds FEW029 22 18 78% 76 0.0
08 01:55 N 19 16.09 Fair CLR 23 19 78% 76 0.0 0.03
08 01:15 Vrbl 15 16.09 Mostly Cloudy SCT017 BKN029 BKN041 24 21 83% 24 76 0.0
08 00:55 Calm 16.09 Fair CLR 24 22 89% 24 76 0.0
08 00:35 W 11 16.09 A Few Clouds FEW044 24 22 89% 24 75.97 0.0
08 00:15 Vrbl 9 16.09 Partly Cloudy FEW039 SCT045 24 21 83% 24 76 0.0
07 23:55 Vrbl 7 16.09 Partly Cloudy FEW021 FEW025 SCT032 24 22 89% 24 76 0.0
07 23:35 Vrbl 9 16.09 Overcast BKN023 BKN029 OVC046 24 22 89% 24 75.97 0.0
07 23:15 Vrbl 7 16.09 Mostly Cloudy FEW023 SCT028 BKN033 24 21 83% 24 75.95 0.0
07 22:55 W 9 16.09 Fair CLR 24 21 83% 24 75.92 0.0
07 22:35 W 7 16.09 Fair CLR 24 21 83% 24 75.92 0.0
07 22:15 Vrbl 9 16.09 A Few Clouds FEW027 25 21 79% 26 75.92 0.0
07 21:55 W 9 16.09 Fair CLR 25 21 79% 26 75.9 0.0
07 21:35 Vrbl 7 16.09 Fair CLR 25 20 74% 26 75.87 0.0
07 21:15 W 7 16.09 Partly Cloudy SCT031 25 20 74% 26 75.84 0.0
07 20:50 W 9 G 20 16.09 Mostly Cloudy BKN033 26 20 70% 27 75.84 0.0
07 19:50 W 13 G 31 16.09 A Few Clouds FEW049 26 20 70% 27 75.79 0.0
07 18:50 W 19 G 41 16.09 A Few Clouds FEW044 28 20 62% 30 75.77 0.0
07 17:50 W 19 G 31 16.09 Partly Cloudy SCT038 28 20 62% 30 75.77 0.0
07 16:50 W 22 G 41 16.09 Fair CLR 28 19 58% 29 75.77 0.0
07 14:50 W 26 G 37 16.09 Fair CLR 29 18 51% 30 75.84 0.0
07 13:50 SW 22 G 35 16.09 Fair CLR 27 18 58% 28 75.84 0.0
07 12:51 Vrbl 9 11.27 Fair CLR 25 19 69% 26 75.87 0.0
07 11:50 S 30 G 52 6.44 Fair with Haze CLR 24 18 69% 25 75.72 0.0
Date Time (edt) Wind (kph) Vis. (km) Weather Sky Cond. Air Dwpt Max. Min. Relative Humidity Wind Chill (°C) Heat Index (°C) altimeter (cm) sea level (mb) 1 hr 3 hr 6 hr
6 hour
Temperature (ºC) Pressure Precipitation (cm)